sensor_id;sensor_type;location;lat;lon;timestamp;pressure;altitude;pressure_sealevel;temperature;humidity
7480;BME280;3781;42.272;22.658;2024-03-06T00:00:49;94136.50;;;4.69;100.00
7480;BME280;3781;42.272;22.658;2024-03-06T00:03:16;94128.78;;;4.69;100.00
7480;BME280;3781;42.272;22.658;2024-03-06T00:05:43;94119.34;;;4.45;100.00
7480;BME280;3781;42.272;22.658;2024-03-06T00:08:11;94123.81;;;4.31;100.00
7480;BME280;3781;42.272;22.658;2024-03-06T00:10:38;94128.28;;;4.16;100.00
7480;BME280;3781;42.272;22.658;2024-03-06T00:13:04;94144.34;;;4.07;100.00
7480;BME280;3781;42.272;22.658;2024-03-06T00:15:31;94134.06;;;4.07;100.00
7480;BME280;3781;42.272;22.658;2024-03-06T00:17:59;94145.13;;;4.20;100.00
7480;BME280;3781;42.272;22.658;2024-03-06T00:20:26;94136.84;;;4.40;100.00
7480;BME280;3781;42.272;22.658;2024-03-06T00:22:53;94138.00;;;4.60;100.00
7480;BME280;3781;42.272;22.658;2024-03-06T00:25:22;94094.56;;;4.44;100.00
7480;BME280;3781;42.272;22.658;2024-03-06T00:27:49;94129.25;;;4.63;100.00
7480;BME280;3781;42.272;22.658;2024-03-06T00:30:16;94137.16;;;4.59;100.00
7480;BME280;3781;42.272;22.658;2024-03-06T00:32:43;94147.25;;;4.63;100.00
7480;BME280;3781;42.272;22.658;2024-03-06T00:35:10;94147.84;;;4.66;100.00
7480;BME280;3781;42.272;22.658;2024-03-06T00:37:37;94145.44;;;4.76;100.00
7480;BME280;3781;42.272;22.658;2024-03-06T00:40:04;94152.25;;;4.88;100.00
7480;BME280;3781;42.272;22.658;2024-03-06T00:42:33;94138.69;;;4.86;100.00
7480;BME280;3781;42.272;22.658;2024-03-06T00:45:00;94111.25;;;4.63;100.00
7480;BME280;3781;42.272;22.658;2024-03-06T00:47:28;94116.00;;;4.56;100.00
7480;BME280;3781;42.272;22.658;2024-03-06T00:49:54;94116.78;;;4.69;100.00
7480;BME280;3781;42.272;22.658;2024-03-06T00:52:21;94145.03;;;4.93;100.00
7480;BME280;3781;42.272;22.658;2024-03-06T00:54:48;94142.63;;;4.79;100.00
7480;BME280;3781;42.272;22.658;2024-03-06T00:57:14;94155.97;;;4.84;100.00
7480;BME280;3781;42.272;22.658;2024-03-06T00:59:43;94151.16;;;4.79;100.00
7480;BME280;3781;42.272;22.658;2024-03-06T01:02:09;94154.78;;;4.77;100.00
7480;BME280;3781;42.272;22.658;2024-03-06T01:04:36;94145.16;;;4.68;100.00
7480;BME280;3781;42.272;22.658;2024-03-06T01:07:03;94148.84;;;4.76;100.00
7480;BME280;3781;42.272;22.658;2024-03-06T01:09:29;94156.19;;;4.81;100.00
7480;BME280;3781;42.272;22.658;2024-03-06T01:11:56;94158.28;;;4.76;100.00
7480;BME280;3781;42.272;22.658;2024-03-06T01:14:23;94156.63;;;4.75;100.00
7480;BME280;3781;42.272;22.658;2024-03-06T01:16:51;94130.94;;;4.51;100.00
7480;BME280;3781;42.272;22.658;2024-03-06T01:19:18;94157.03;;;4.57;100.00
7480;BME280;3781;42.272;22.658;2024-03-06T01:21:44;94159.22;;;4.51;100.00
7480;BME280;3781;42.272;22.658;2024-03-06T01:24:11;94117.00;;;4.19;100.00
7480;BME280;3781;42.272;22.658;2024-03-06T01:26:38;94160.50;;;4.33;100.00
7480;BME280;3781;42.272;22.658;2024-03-06T01:29:05;94151.06;;;4.33;100.00
7480;BME280;3781;42.272;22.658;2024-03-06T01:31:32;94161.13;;;4.36;100.00
7480;BME280;3781;42.272;22.658;2024-03-06T01:34:00;94137.78;;;4.03;100.00
7480;BME280;3781;42.272;22.658;2024-03-06T01:36:27;94153.16;;;4.16;100.00
7480;BME280;3781;42.272;22.658;2024-03-06T01:38:54;94155.22;;;4.23;100.00
7480;BME280;3781;42.272;22.658;2024-03-06T01:41:20;94152.72;;;4.34;100.00
7480;BME280;3781;42.272;22.658;2024-03-06T01:43:47;94151.13;;;4.44;100.00
7480;BME280;3781;42.272;22.658;2024-03-06T01:46:14;94158.78;;;4.33;100.00
7480;BME280;3781;42.272;22.658;2024-03-06T01:48:41;94157.06;;;4.21;100.00
7480;BME280;3781;42.272;22.658;2024-03-06T01:51:09;94150.31;;;4.08;100.00
7480;BME280;3781;42.272;22.658;2024-03-06T01:53:36;94157.16;;;3.71;100.00
7480;BME280;3781;42.272;22.658;2024-03-06T01:56:04;94156.34;;;3.70;100.00
7480;BME280;3781;42.272;22.658;2024-03-06T01:58:31;94155.66;;;3.56;100.00
7480;BME280;3781;42.272;22.658;2024-03-06T02:01:00;94144.16;;;3.49;100.00
7480;BME280;3781;42.272;22.658;2024-03-06T02:03:27;94142.38;;;3.62;100.00
7480;BME280;3781;42.272;22.658;2024-03-06T02:05:54;94144.34;;;3.71;100.00
7480;BME280;3781;42.272;22.658;2024-03-06T02:08:24;94143.00;;;3.53;100.00
7480;BME280;3781;42.272;22.658;2024-03-06T02:10:51;94156.38;;;3.58;100.00
7480;BME280;3781;42.272;22.658;2024-03-06T02:13:18;94155.75;;;3.67;100.00
7480;BME280;3781;42.272;22.658;2024-03-06T02:15:45;94161.38;;;3.85;100.00
7480;BME280;3781;42.272;22.658;2024-03-06T02:18:12;94160.41;;;3.98;100.00
7480;BME280;3781;42.272;22.658;2024-03-06T02:20:40;94167.03;;;4.13;100.00
7480;BME280;3781;42.272;22.658;2024-03-06T02:23:06;94165.06;;;4.29;100.00
7480;BME280;3781;42.272;22.658;2024-03-06T02:25:33;94174.09;;;4.35;100.00
7480;BME280;3781;42.272;22.658;2024-03-06T02:28:00;94177.78;;;4.43;100.00
7480;BME280;3781;42.272;22.658;2024-03-06T02:30:27;94183.13;;;4.40;100.00
7480;BME280;3781;42.272;22.658;2024-03-06T02:32:56;94171.56;;;4.46;100.00
7480;BME280;3781;42.272;22.658;2024-03-06T02:35:22;94168.47;;;4.53;100.00
7480;BME280;3781;42.272;22.658;2024-03-06T02:37:50;94169.69;;;4.61;100.00
7480;BME280;3781;42.272;22.658;2024-03-06T02:40:17;94178.09;;;4.63;100.00
7480;BME280;3781;42.272;22.658;2024-03-06T02:42:44;94182.53;;;4.61;100.00
7480;BME280;3781;42.272;22.658;2024-03-06T02:45:11;94176.13;;;4.66;100.00
7480;BME280;3781;42.272;22.658;2024-03-06T02:47:38;94185.31;;;4.57;100.00
7480;BME280;3781;42.272;22.658;2024-03-06T02:50:05;94186.72;;;4.38;100.00
7480;BME280;3781;42.272;22.658;2024-03-06T02:52:33;94177.44;;;4.12;100.00
7480;BME280;3781;42.272;22.658;2024-03-06T02:55:01;94191.66;;;3.92;100.00
7480;BME280;3781;42.272;22.658;2024-03-06T02:57:28;94183.03;;;3.68;100.00
7480;BME280;3781;42.272;22.658;2024-03-06T02:59:55;94183.66;;;3.59;100.00
7480;BME280;3781;42.272;22.658;2024-03-06T03:02:22;94188.19;;;3.55;100.00
7480;BME280;3781;42.272;22.658;2024-03-06T03:04:49;94179.16;;;3.50;100.00
7480;BME280;3781;42.272;22.658;2024-03-06T03:07:17;94180.50;;;3.43;100.00
7480;BME280;3781;42.272;22.658;2024-03-06T03:09:44;94149.78;;;3.29;100.00
7480;BME280;3781;42.272;22.658;2024-03-06T03:12:13;94192.19;;;3.47;100.00
7480;BME280;3781;42.272;22.658;2024-03-06T03:14:39;94195.78;;;3.44;100.00
7480;BME280;3781;42.272;22.658;2024-03-06T03:17:06;94182.47;;;3.39;100.00
7480;BME280;3781;42.272;22.658;2024-03-06T03:19:33;94141.97;;;3.18;100.00
7480;BME280;3781;42.272;22.658;2024-03-06T03:22:00;94172.28;;;3.38;100.00
7480;BME280;3781;42.272;22.658;2024-03-06T03:24:29;94198.34;;;3.44;100.00
7480;BME280;3781;42.272;22.658;2024-03-06T03:26:56;94190.47;;;3.35;100.00
7480;BME280;3781;42.272;22.658;2024-03-06T03:29:24;94195.91;;;3.30;100.00
7480;BME280;3781;42.272;22.658;2024-03-06T03:31:51;94198.22;;;3.21;100.00
7480;BME280;3781;42.272;22.658;2024-03-06T03:34:18;94200.63;;;2.84;100.00
7480;BME280;3781;42.272;22.658;2024-03-06T03:36:46;94190.63;;;2.67;100.00
7480;BME280;3781;42.272;22.658;2024-03-06T03:39:14;94178.44;;;2.44;100.00
7480;BME280;3781;42.272;22.658;2024-03-06T03:41:44;94186.94;;;2.45;100.00
7480;BME280;3781;42.272;22.658;2024-03-06T03:44:12;94193.50;;;2.49;100.00
7480;BME280;3781;42.272;22.658;2024-03-06T03:46:40;94180.75;;;2.35;100.00
7480;BME280;3781;42.272;22.658;2024-03-06T03:49:07;94166.78;;;2.26;100.00
7480;BME280;3781;42.272;22.658;2024-03-06T03:51:35;94189.22;;;2.49;100.00
7480;BME280;3781;42.272;22.658;2024-03-06T03:54:02;94196.72;;;2.52;100.00
7480;BME280;3781;42.272;22.658;2024-03-06T03:56:29;94193.22;;;2.53;100.00
7480;BME280;3781;42.272;22.658;2024-03-06T03:58:56;94186.50;;;2.38;100.00
7480;BME280;3781;42.272;22.658;2024-03-06T04:01:22;94174.09;;;2.32;100.00
7480;BME280;3781;42.272;22.658;2024-03-06T04:03:51;94190.22;;;2.47;100.00
7480;BME280;3781;42.272;22.658;2024-03-06T04:06:17;94189.75;;;2.54;100.00
7480;BME280;3781;42.272;22.658;2024-03-06T04:08:45;94200.72;;;2.56;100.00
7480;BME280;3781;42.272;22.658;2024-03-06T04:11:11;94205.13;;;2.54;100.00
7480;BME280;3781;42.272;22.658;2024-03-06T04:13:38;94199.94;;;2.42;100.00
7480;BME280;3781;42.272;22.658;2024-03-06T04:16:08;94197.88;;;2.34;100.00
7480;BME280;3781;42.272;22.658;2024-03-06T04:18:35;94151.84;;;2.06;100.00
7480;BME280;3781;42.272;22.658;2024-03-06T04:21:04;94207.00;;;2.38;100.00
7480;BME280;3781;42.272;22.658;2024-03-06T04:23:31;94212.81;;;2.54;100.00
7480;BME280;3781;42.272;22.658;2024-03-06T04:25:58;94218.03;;;2.79;100.00
7480;BME280;3781;42.272;22.658;2024-03-06T04:28:25;94203.59;;;2.78;100.00
7480;BME280;3781;42.272;22.658;2024-03-06T04:30:51;94162.47;;;2.53;100.00
7480;BME280;3781;42.272;22.658;2024-03-06T04:33:18;94216.19;;;2.81;100.00
7480;BME280;3781;42.272;22.658;2024-03-06T04:35:45;94213.75;;;2.80;100.00
7480;BME280;3781;42.272;22.658;2024-03-06T04:38:13;94214.50;;;2.94;100.00
7480;BME280;3781;42.272;22.658;2024-03-06T04:40:40;94201.75;;;2.80;100.00
7480;BME280;3781;42.272;22.658;2024-03-06T04:43:07;94228.56;;;3.01;100.00
7480;BME280;3781;42.272;22.658;2024-03-06T04:45:34;94221.78;;;3.00;100.00
7480;BME280;3781;42.272;22.658;2024-03-06T04:48:00;94227.47;;;2.79;100.00
7480;BME280;3781;42.272;22.658;2024-03-06T04:50:27;94234.97;;;2.82;100.00
7480;BME280;3781;42.272;22.658;2024-03-06T04:52:54;94231.19;;;2.87;100.00
7480;BME280;3781;42.272;22.658;2024-03-06T04:55:23;94229.50;;;2.74;100.00
7480;BME280;3781;42.272;22.658;2024-03-06T04:57:52;94242.22;;;2.75;100.00
7480;BME280;3781;42.272;22.658;2024-03-06T05:00:19;94209.91;;;2.46;100.00
7480;BME280;3781;42.272;22.658;2024-03-06T05:02:47;94252.47;;;2.75;100.00
7480;BME280;3781;42.272;22.658;2024-03-06T05:05:14;94254.06;;;2.90;100.00
7480;BME280;3781;42.272;22.658;2024-03-06T05:07:41;94255.78;;;2.77;100.00
7480;BME280;3781;42.272;22.658;2024-03-06T05:10:08;94264.81;;;2.42;100.00
7480;BME280;3781;42.272;22.658;2024-03-06T05:12:36;94264.88;;;2.14;100.00
7480;BME280;3781;42.272;22.658;2024-03-06T05:15:03;94265.97;;;1.96;100.00
7480;BME280;3781;42.272;22.658;2024-03-06T05:17:31;94266.88;;;1.81;100.00
7480;BME280;3781;42.272;22.658;2024-03-06T05:20:00;94264.16;;;1.70;100.00
7480;BME280;3781;42.272;22.658;2024-03-06T05:22:29;94227.94;;;1.47;100.00
7480;BME280;3781;42.272;22.658;2024-03-06T05:24:56;94262.88;;;1.91;100.00
7480;BME280;3781;42.272;22.658;2024-03-06T05:27:23;94265.69;;;2.00;100.00
7480;BME280;3781;42.272;22.658;2024-03-06T05:29:52;94273.28;;;2.16;100.00
7480;BME280;3781;42.272;22.658;2024-03-06T05:32:20;94266.59;;;2.27;100.00
7480;BME280;3781;42.272;22.658;2024-03-06T05:34:46;94274.25;;;2.42;100.00
7480;BME280;3781;42.272;22.658;2024-03-06T05:37:13;94281.09;;;2.55;100.00
7480;BME280;3781;42.272;22.658;2024-03-06T05:39:40;94272.28;;;2.73;100.00
7480;BME280;3781;42.272;22.658;2024-03-06T05:42:07;94285.41;;;2.95;100.00
7480;BME280;3781;42.272;22.658;2024-03-06T05:44:34;94291.59;;;3.18;100.00
7480;BME280;3781;42.272;22.658;2024-03-06T05:47:03;94290.44;;;3.36;100.00
7480;BME280;3781;42.272;22.658;2024-03-06T05:49:31;94300.53;;;3.52;100.00
7480;BME280;3781;42.272;22.658;2024-03-06T05:51:58;94270.13;;;3.46;100.00
7480;BME280;3781;42.272;22.658;2024-03-06T05:54:25;94302.41;;;3.75;100.00
7480;BME280;3781;42.272;22.658;2024-03-06T05:56:56;94303.84;;;3.92;100.00
7480;BME280;3781;42.272;22.658;2024-03-06T05:59:24;94310.66;;;4.05;100.00
7480;BME280;3781;42.272;22.658;2024-03-06T06:01:51;94319.06;;;4.20;100.00
7480;BME280;3781;42.272;22.658;2024-03-06T06:04:20;94318.22;;;4.44;100.00
7480;BME280;3781;42.272;22.658;2024-03-06T06:06:49;94327.03;;;4.66;100.00
7480;BME280;3781;42.272;22.658;2024-03-06T06:09:16;94321.06;;;4.78;100.00
7480;BME280;3781;42.272;22.658;2024-03-06T06:11:43;94327.97;;;5.01;100.00
7480;BME280;3781;42.272;22.658;2024-03-06T06:14:10;94337.25;;;5.27;100.00
7480;BME280;3781;42.272;22.658;2024-03-06T06:16:37;94320.50;;;5.45;100.00
7480;BME280;3781;42.272;22.658;2024-03-06T06:19:06;94343.09;;;5.76;100.00
7480;BME280;3781;42.272;22.658;2024-03-06T06:21:34;94350.00;;;5.99;100.00
7480;BME280;3781;42.272;22.658;2024-03-06T06:24:05;94344.91;;;6.22;100.00
7480;BME280;3781;42.272;22.658;2024-03-06T06:26:33;94355.56;;;6.50;100.00
7480;BME280;3781;42.272;22.658;2024-03-06T06:29:00;94310.94;;;6.61;100.00
7480;BME280;3781;42.272;22.658;2024-03-06T06:31:27;94357.53;;;7.24;100.00
7480;BME280;3781;42.272;22.658;2024-03-06T06:33:54;94358.13;;;7.71;100.00
7480;BME280;3781;42.272;22.658;2024-03-06T06:36:21;94371.19;;;8.21;100.00
7480;BME280;3781;42.272;22.658;2024-03-06T06:38:49;94355.09;;;8.59;100.00
7480;BME280;3781;42.272;22.658;2024-03-06T06:41:17;94369.94;;;9.18;100.00
7480;BME280;3781;42.272;22.658;2024-03-06T06:43:44;94373.97;;;9.41;100.00
7480;BME280;3781;42.272;22.658;2024-03-06T06:46:11;94371.63;;;9.28;98.19
7480;BME280;3781;42.272;22.658;2024-03-06T06:48:38;94361.59;;;9.04;98.50
7480;BME280;3781;42.272;22.658;2024-03-06T06:51:05;94366.41;;;8.58;100.00
7480;BME280;3781;42.272;22.658;2024-03-06T06:53:31;94370.44;;;8.72;100.00
7480;BME280;3781;42.272;22.658;2024-03-06T06:56:00;94366.97;;;8.92;100.00
7480;BME280;3781;42.272;22.658;2024-03-06T06:58:26;94375.44;;;9.24;97.39
7480;BME280;3781;42.272;22.658;2024-03-06T07:00:53;94378.59;;;9.47;94.30
7480;BME280;3781;42.272;22.658;2024-03-06T07:03:20;94377.16;;;9.73;92.80
7480;BME280;3781;42.272;22.658;2024-03-06T07:05:48;94382.19;;;9.74;89.95
7480;BME280;3781;42.272;22.658;2024-03-06T07:08:15;94386.84;;;9.71;91.03
7480;BME280;3781;42.272;22.658;2024-03-06T07:10:42;94385.63;;;9.75;90.79
7480;BME280;3781;42.272;22.658;2024-03-06T07:13:10;94382.88;;;9.67;91.06
7480;BME280;3781;42.272;22.658;2024-03-06T07:15:37;94379.97;;;9.51;91.25
7480;BME280;3781;42.272;22.658;2024-03-06T07:18:04;94379.44;;;9.47;94.08
7480;BME280;3781;42.272;22.658;2024-03-06T07:20:33;94384.06;;;9.44;92.18
7480;BME280;3781;42.272;22.658;2024-03-06T07:23:00;94382.72;;;9.49;93.69
7480;BME280;3781;42.272;22.658;2024-03-06T07:25:27;94378.72;;;9.36;94.17
7480;BME280;3781;42.272;22.658;2024-03-06T07:27:57;94386.09;;;9.31;93.64
7480;BME280;3781;42.272;22.658;2024-03-06T07:30:28;94387.44;;;9.35;92.53
7480;BME280;3781;42.272;22.658;2024-03-06T07:32:56;94383.84;;;9.17;94.76
7480;BME280;3781;42.272;22.658;2024-03-06T07:35:26;94377.97;;;9.15;96.39
7480;BME280;3781;42.272;22.658;2024-03-06T07:37:53;94355.56;;;9.04;96.80
7480;BME280;3781;42.272;22.658;2024-03-06T07:40:20;94388.13;;;9.37;96.00
7480;BME280;3781;42.272;22.658;2024-03-06T07:42:47;94365.94;;;9.44;93.96
7480;BME280;3781;42.272;22.658;2024-03-06T07:45:14;94385.03;;;9.62;91.75
7480;BME280;3781;42.272;22.658;2024-03-06T07:47:42;94390.94;;;9.73;89.50
7480;BME280;3781;42.272;22.658;2024-03-06T07:50:10;94351.78;;;9.67;87.38
7480;BME280;3781;42.272;22.658;2024-03-06T07:52:38;94361.75;;;10.00;87.66
7480;BME280;3781;42.272;22.658;2024-03-06T07:55:05;94357.38;;;10.10;86.31
7480;BME280;3781;42.272;22.658;2024-03-06T07:57:32;94377.59;;;10.54;84.90
7480;BME280;3781;42.272;22.658;2024-03-06T08:00:00;94377.81;;;10.80;84.20
7480;BME280;3781;42.272;22.658;2024-03-06T08:02:33;94378.84;;;10.97;81.18
7480;BME280;3781;42.272;22.658;2024-03-06T08:05:02;94382.25;;;11.07;79.74
7480;BME280;3781;42.272;22.658;2024-03-06T08:07:29;94375.59;;;11.22;78.64
7480;BME280;3781;42.272;22.658;2024-03-06T08:09:56;94371.09;;;11.24;77.85
7480;BME280;3781;42.272;22.658;2024-03-06T08:12:23;94383.91;;;11.35;77.52
7480;BME280;3781;42.272;22.658;2024-03-06T08:14:50;94379.66;;;11.34;76.11
7480;BME280;3781;42.272;22.658;2024-03-06T08:17:21;94352.56;;;11.27;75.77
7480;BME280;3781;42.272;22.658;2024-03-06T08:19:56;94389.38;;;11.86;74.22
7480;BME280;3781;42.272;22.658;2024-03-06T08:22:29;94365.47;;;12.00;72.58
7480;BME280;3781;42.272;22.658;2024-03-06T08:24:56;94292.56;;;11.65;69.67
7480;BME280;3781;42.272;22.658;2024-03-06T08:27:23;94390.00;;;12.16;68.98
7480;BME280;3781;42.272;22.658;2024-03-06T08:29:51;94353.16;;;11.93;69.97
7480;BME280;3781;42.272;22.658;2024-03-06T08:32:20;94343.25;;;12.32;70.72
7480;BME280;3781;42.272;22.658;2024-03-06T08:34:48;94386.97;;;13.07;68.51
7480;BME280;3781;42.272;22.658;2024-03-06T08:37:14;94331.75;;;13.11;66.31
7480;BME280;3781;42.272;22.658;2024-03-06T08:39:42;94389.16;;;14.11;64.29
7480;BME280;3781;42.272;22.658;2024-03-06T08:42:09;94373.88;;;14.56;62.58
7480;BME280;3781;42.272;22.658;2024-03-06T08:44:39;94382.66;;;15.66;59.19
7480;BME280;3781;42.272;22.658;2024-03-06T08:47:07;94389.41;;;16.45;54.66
7480;BME280;3781;42.272;22.658;2024-03-06T08:49:48;94366.66;;;17.20;51.05
7480;BME280;3781;42.272;22.658;2024-03-06T08:52:15;94369.63;;;17.90;48.65
7480;BME280;3781;42.272;22.658;2024-03-06T08:54:43;94385.25;;;18.13;48.52
7480;BME280;3781;42.272;22.658;2024-03-06T08:57:12;94365.06;;;18.34;48.17
7480;BME280;3781;42.272;22.658;2024-03-06T08:59:39;94387.22;;;18.82;47.60
7480;BME280;3781;42.272;22.658;2024-03-06T09:02:15;94378.59;;;19.43;45.54
7480;BME280;3781;42.272;22.658;2024-03-06T09:04:42;94379.25;;;19.93;44.72
7480;BME280;3781;42.272;22.658;2024-03-06T09:07:11;94365.00;;;20.21;42.54
7480;BME280;3781;42.272;22.658;2024-03-06T09:09:38;94340.69;;;19.79;42.07
7480;BME280;3781;42.272;22.658;2024-03-06T09:12:08;94366.16;;;20.12;41.53
7480;BME280;3781;42.272;22.658;2024-03-06T09:14:36;94361.31;;;20.16;42.66
7480;BME280;3781;42.272;22.658;2024-03-06T09:17:06;94294.25;;;19.78;41.88
7480;BME280;3781;42.272;22.658;2024-03-06T09:19:34;94369.75;;;19.98;41.98
7480;BME280;3781;42.272;22.658;2024-03-06T09:22:01;94365.94;;;20.01;41.60
7480;BME280;3781;42.272;22.658;2024-03-06T09:24:29;94356.69;;;19.77;41.97
7480;BME280;3781;42.272;22.658;2024-03-06T09:26:55;94354.41;;;19.33;42.82
7480;BME280;3781;42.272;22.658;2024-03-06T09:29:24;94351.22;;;19.79;42.87
7480;BME280;3781;42.272;22.658;2024-03-06T09:31:59;94340.59;;;20.13;40.99
7480;BME280;3781;42.272;22.658;2024-03-06T09:34:26;94351.13;;;21.06;39.64
7480;BME280;3781;42.272;22.658;2024-03-06T09:36:53;94349.69;;;20.97;39.34
7480;BME280;3781;42.272;22.658;2024-03-06T09:39:20;94349.66;;;20.77;39.95
7480;BME280;3781;42.272;22.658;2024-03-06T09:41:48;94354.16;;;21.23;38.77
7480;BME280;3781;42.272;22.658;2024-03-06T09:44:15;94348.13;;;21.93;38.74
7480;BME280;3781;42.272;22.658;2024-03-06T09:46:45;94354.66;;;22.34;37.10
7480;BME280;3781;42.272;22.658;2024-03-06T09:49:13;94354.78;;;22.52;37.61
7480;BME280;3781;42.272;22.658;2024-03-06T09:51:42;94343.19;;;22.85;36.40
7480;BME280;3781;42.272;22.658;2024-03-06T09:54:11;94340.75;;;23.08;36.06
7480;BME280;3781;42.272;22.658;2024-03-06T09:56:41;94343.16;;;23.59;35.66
7480;BME280;3781;42.272;22.658;2024-03-06T09:59:08;94339.25;;;23.79;34.78
7480;BME280;3781;42.272;22.658;2024-03-06T10:01:42;94339.31;;;23.73;34.86
7480;BME280;3781;42.272;22.658;2024-03-06T10:04:20;94329.41;;;24.23;33.62
7480;BME280;3781;42.272;22.658;2024-03-06T10:06:47;94328.56;;;24.82;32.54
7480;BME280;3781;42.272;22.658;2024-03-06T10:09:17;94332.53;;;24.61;32.49
7480;BME280;3781;42.272;22.658;2024-03-06T10:11:44;94333.94;;;23.97;32.33
7480;BME280;3781;42.272;22.658;2024-03-06T10:14:10;94330.25;;;24.17;32.56
7480;BME280;3781;42.272;22.658;2024-03-06T10:16:37;94331.00;;;24.83;31.88
7480;BME280;3781;42.272;22.658;2024-03-06T10:19:15;94318.84;;;25.52;30.56
7480;BME280;3781;42.272;22.658;2024-03-06T10:21:46;94323.91;;;25.65;30.25
7480;BME280;3781;42.272;22.658;2024-03-06T10:24:18;94317.34;;;25.44;30.12
7480;BME280;3781;42.272;22.658;2024-03-06T10:26:45;94316.59;;;25.25;30.87
7480;BME280;3781;42.272;22.658;2024-03-06T10:29:15;94304.22;;;24.85;31.20
7480;BME280;3781;42.272;22.658;2024-03-06T10:31:47;94299.97;;;24.65;31.43
7480;BME280;3781;42.272;22.658;2024-03-06T10:34:15;94312.69;;;25.16;30.23
7480;BME280;3781;42.272;22.658;2024-03-06T10:36:42;94298.94;;;24.66;30.64
7480;BME280;3781;42.272;22.658;2024-03-06T10:39:12;94296.59;;;25.00;30.41
7480;BME280;3781;42.272;22.658;2024-03-06T10:41:40;94284.59;;;25.20;30.81
7480;BME280;3781;42.272;22.658;2024-03-06T10:44:11;94289.13;;;24.67;29.71
7480;BME280;3781;42.272;22.658;2024-03-06T10:46:43;94287.97;;;24.63;30.93
7480;BME280;3781;42.272;22.658;2024-03-06T10:49:12;94279.38;;;24.79;30.34
7480;BME280;3781;42.272;22.658;2024-03-06T10:51:41;94277.94;;;24.06;30.73
7480;BME280;3781;42.272;22.658;2024-03-06T10:54:12;94278.31;;;22.69;31.99
7480;BME280;3781;42.272;22.658;2024-03-06T10:56:40;94278.06;;;23.20;32.73
7480;BME280;3781;42.272;22.658;2024-03-06T10:59:10;94277.09;;;24.23;31.83
7480;BME280;3781;42.272;22.658;2024-03-06T11:01:39;94274.81;;;24.27;31.01
7480;BME280;3781;42.272;22.658;2024-03-06T11:04:09;94266.00;;;23.49;32.22
7480;BME280;3781;42.272;22.658;2024-03-06T11:06:38;94265.38;;;21.92;33.89
7480;BME280;3781;42.272;22.658;2024-03-06T11:09:05;94255.06;;;20.35;34.73
7480;BME280;3781;42.272;22.658;2024-03-06T11:11:47;94252.69;;;19.32;37.15
7480;BME280;3781;42.272;22.658;2024-03-06T11:14:15;94249.16;;;18.78;37.73
7480;BME280;3781;42.272;22.658;2024-03-06T11:16:57;94239.97;;;17.97;39.08
7480;BME280;3781;42.272;22.658;2024-03-06T11:19:24;94242.19;;;17.79;40.41
7480;BME280;3781;42.272;22.658;2024-03-06T11:21:51;94239.06;;;17.90;40.23
7480;BME280;3781;42.272;22.658;2024-03-06T11:24:21;94238.63;;;18.08;39.91
7480;BME280;3781;42.272;22.658;2024-03-06T11:26:55;94224.69;;;17.86;39.81
7480;BME280;3781;42.272;22.658;2024-03-06T11:29:23;94230.22;;;17.91;40.01
7480;BME280;3781;42.272;22.658;2024-03-06T11:32:03;94218.44;;;17.87;39.90
7480;BME280;3781;42.272;22.658;2024-03-06T11:34:32;94219.56;;;17.78;40.97
7480;BME280;3781;42.272;22.658;2024-03-06T11:37:02;94222.19;;;17.99;40.79
7480;BME280;3781;42.272;22.658;2024-03-06T11:39:33;94204.72;;;18.13;40.84
7480;BME280;3781;42.272;22.658;2024-03-06T11:42:03;94209.59;;;18.37;40.62
7480;BME280;3781;42.272;22.658;2024-03-06T11:44:34;94192.03;;;18.44;40.62
7480;BME280;3781;42.272;22.658;2024-03-06T11:47:03;94201.72;;;18.65;39.50
7480;BME280;3781;42.272;22.658;2024-03-06T11:49:31;94216.09;;;18.69;39.77
7480;BME280;3781;42.272;22.658;2024-03-06T11:52:00;94220.44;;;18.83;39.30
7480;BME280;3781;42.272;22.658;2024-03-06T11:54:27;94214.38;;;18.83;39.41
7480;BME280;3781;42.272;22.658;2024-03-06T11:56:56;94215.94;;;18.77;38.86
7480;BME280;3781;42.272;22.658;2024-03-06T11:59:25;94203.69;;;18.56;39.12
7480;BME280;3781;42.272;22.658;2024-03-06T12:01:52;94204.72;;;18.13;38.83
7480;BME280;3781;42.272;22.658;2024-03-06T12:04:20;94202.19;;;17.42;39.82
7480;BME280;3781;42.272;22.658;2024-03-06T12:06:47;94203.25;;;17.47;40.14
7480;BME280;3781;42.272;22.658;2024-03-06T12:09:15;94208.97;;;17.36;41.74
7480;BME280;3781;42.272;22.658;2024-03-06T12:11:42;94196.81;;;16.99;41.29
7480;BME280;3781;42.272;22.658;2024-03-06T12:14:13;94205.09;;;16.44;42.50
7480;BME280;3781;42.272;22.658;2024-03-06T12:16:41;94186.78;;;15.70;43.07
7480;BME280;3781;42.272;22.658;2024-03-06T12:19:08;94199.84;;;15.17;44.78
7480;BME280;3781;42.272;22.658;2024-03-06T12:21:36;94210.22;;;15.33;45.59
7480;BME280;3781;42.272;22.658;2024-03-06T12:24:04;94205.53;;;14.81;47.15
7480;BME280;3781;42.272;22.658;2024-03-06T12:26:31;94204.22;;;14.39;48.98
7480;BME280;3781;42.272;22.658;2024-03-06T12:29:05;94200.50;;;13.52;53.82
7480;BME280;3781;42.272;22.658;2024-03-06T12:31:33;94156.19;;;12.53;59.00
7480;BME280;3781;42.272;22.658;2024-03-06T12:34:02;94201.09;;;12.47;62.64
7480;BME280;3781;42.272;22.658;2024-03-06T12:36:29;94208.25;;;12.45;65.69
7480;BME280;3781;42.272;22.658;2024-03-06T12:38:56;94201.44;;;12.44;73.91
7480;BME280;3781;42.272;22.658;2024-03-06T12:41:25;94199.38;;;12.30;81.17
7480;BME280;3781;42.272;22.658;2024-03-06T12:43:53;94181.03;;;12.13;84.28
7480;BME280;3781;42.272;22.658;2024-03-06T12:46:20;94203.38;;;12.42;84.98
7480;BME280;3781;42.272;22.658;2024-03-06T12:48:47;94214.47;;;12.52;84.69
7480;BME280;3781;42.272;22.658;2024-03-06T12:51:15;94212.50;;;12.87;86.05
7480;BME280;3781;42.272;22.658;2024-03-06T12:53:42;94210.13;;;13.76;81.46
7480;BME280;3781;42.272;22.658;2024-03-06T12:56:09;94211.31;;;14.69;69.38
7480;BME280;3781;42.272;22.658;2024-03-06T12:58:36;94217.34;;;15.47;62.91
7480;BME280;3781;42.272;22.658;2024-03-06T13:01:03;94217.00;;;16.18;60.69
7480;BME280;3781;42.272;22.658;2024-03-06T13:03:30;94212.81;;;17.19;59.08
7480;BME280;3781;42.272;22.658;2024-03-06T13:05:58;94213.56;;;17.63;57.25
7480;BME280;3781;42.272;22.658;2024-03-06T13:08:26;94198.16;;;17.81;54.33
7480;BME280;3781;42.272;22.658;2024-03-06T13:10:53;94212.31;;;17.80;53.23
7480;BME280;3781;42.272;22.658;2024-03-06T13:13:21;94217.56;;;17.80;53.32
7480;BME280;3781;42.272;22.658;2024-03-06T13:15:49;94222.94;;;17.93;54.09